createdAt,value
2022-11-17T00:00:18.996Z,99.00
2022-11-17T00:02:47.439Z,98.90
2022-11-17T00:05:15.295Z,99.00
2022-11-17T00:07:44.734Z,98.90
2022-11-17T00:10:13.490Z,98.90
2022-11-17T00:12:59.667Z,98.90
2022-11-17T00:15:27.280Z,99.00
2022-11-17T00:18:13.087Z,99.00
2022-11-17T00:21:01.853Z,99.00
2022-11-17T00:23:47.016Z,99.00
2022-11-17T00:26:16.495Z,99.40
2022-11-17T00:28:43.972Z,99.30
2022-11-17T00:31:33.941Z,99.30
2022-11-17T00:34:07.417Z,99.30
2022-11-17T00:36:47.340Z,99.40
2022-11-17T00:39:16.005Z,99.50
2022-11-17T00:41:43.486Z,99.50
2022-11-17T00:44:10.942Z,99.50
2022-11-17T00:46:39.621Z,99.50
2022-11-17T00:49:08.075Z,99.30
2022-11-17T00:51:36.250Z,99.20
2022-11-17T00:54:06.790Z,99.20
2022-11-17T00:56:34.743Z,99.10
2022-11-17T00:59:02.303Z,99.00
2022-11-17T01:01:30.332Z,99.10
2022-11-17T01:04:03.630Z,99.10
2022-11-17T01:06:38.845Z,99.10
2022-11-17T01:09:19.484Z,99.10
2022-11-17T01:11:48.778Z,99.10
2022-11-17T01:14:19.754Z,99.10
2022-11-17T01:16:47.435Z,99.00
2022-11-17T01:19:15.582Z,98.90
2022-11-17T01:21:42.910Z,98.80
2022-11-17T01:24:11.684Z,98.70
2022-11-17T01:26:40.206Z,98.80
2022-11-17T01:29:09.264Z,98.80
2022-11-17T01:31:40.117Z,98.80
2022-11-17T01:34:07.589Z,98.60
2022-11-17T01:36:59.477Z,98.60
2022-11-17T01:39:28.371Z,98.70
2022-11-17T01:41:56.698Z,98.80
2022-11-17T01:44:36.299Z,98.70
2022-11-17T01:47:05.981Z,98.70
2022-11-17T01:49:33.762Z,98.80
2022-11-17T01:52:06.048Z,98.80
2022-11-17T01:54:36.483Z,98.70
2022-11-17T01:57:09.663Z,98.70
2022-11-17T01:59:42.210Z,98.60
2022-11-17T02:02:09.628Z,98.70
2022-11-17T02:04:39.923Z,98.60
2022-11-17T02:07:25.496Z,98.50
2022-11-17T02:09:54.214Z,98.50
2022-11-17T02:12:24.409Z,98.40
2022-11-17T02:14:53.043Z,98.40
2022-11-17T02:17:23.378Z,98.40
2022-11-17T02:20:15.704Z,98.40
2022-11-17T02:23:07.766Z,98.40
2022-11-17T02:25:44.078Z,98.30
2022-11-17T02:28:22.678Z,98.30
2022-11-17T02:31:19.003Z,98.40
2022-11-17T02:34:16.176Z,98.40
2022-11-17T02:36:51.116Z,98.40
2022-11-17T02:39:41.779Z,98.40
2022-11-17T02:42:14.494Z,98.30
2022-11-17T02:44:52.729Z,98.40
2022-11-17T02:47:25.397Z,98.30
2022-11-17T02:50:03.236Z,98.40
2022-11-17T02:52:31.364Z,98.40
2022-11-17T02:55:02.720Z,98.40
2022-11-17T02:57:36.087Z,98.40
2022-11-17T03:00:11.673Z,98.40
2022-11-17T03:02:50.074Z,98.20
2022-11-17T03:05:48.175Z,98.20
2022-11-17T03:08:32.734Z,98.30
2022-11-17T03:11:06.398Z,98.40
2022-11-17T03:14:10.386Z,98.50
2022-11-17T03:16:46.529Z,98.60
2022-11-17T03:19:18.560Z,98.70
2022-11-17T03:21:56.043Z,98.70
2022-11-17T03:24:33.854Z,98.50
2022-11-17T03:27:08.505Z,98.60
2022-11-17T03:29:40.635Z,98.80
2022-11-17T03:32:09.397Z,98.80
2022-11-17T03:34:54.931Z,98.60
2022-11-17T03:37:23.567Z,98.40
2022-11-17T03:39:54.360Z,98.40
2022-11-17T03:42:27.325Z,98.30
2022-11-17T03:45:04.001Z,98.40
2022-11-17T03:47:33.725Z,98.40
2022-11-17T03:50:07.977Z,98.40
2022-11-17T03:52:37.944Z,98.40
2022-11-17T03:55:06.547Z,98.50
2022-11-17T03:58:01.002Z,98.40
2022-11-17T04:00:28.621Z,98.40
2022-11-17T04:02:58.753Z,98.20
2022-11-17T04:05:26.695Z,98.00
2022-11-17T04:07:54.142Z,97.90
2022-11-17T04:10:25.064Z,98.00
2022-11-17T04:13:12.277Z,98.10
2022-11-17T04:15:58.877Z,98.10
2022-11-17T04:18:27.064Z,97.90
2022-11-17T04:20:56.989Z,97.90
2022-11-17T04:23:25.147Z,97.90
2022-11-17T04:26:13.623Z,98.00
2022-11-17T04:28:47.312Z,98.10
2022-11-17T04:31:19.807Z,98.10
2022-11-17T04:33:49.260Z,98.20
2022-11-17T04:36:19.352Z,98.20
2022-11-17T04:38:48.819Z,98.10
2022-11-17T04:41:35.864Z,98.10
2022-11-17T04:44:04.791Z,98.10
2022-11-17T04:46:34.258Z,98.10
2022-11-17T04:49:02.351Z,98.10
2022-11-17T04:51:30.378Z,98.00
2022-11-17T04:53:58.072Z,98.10
2022-11-17T04:56:26.602Z,98.20
2022-11-17T04:58:54.389Z,98.20
2022-11-17T05:01:22.849Z,98.30
2022-11-17T05:03:52.442Z,98.30
2022-11-17T05:06:21.013Z,98.40
2022-11-17T05:08:49.767Z,98.30
2022-11-17T05:11:36.726Z,98.30
2022-11-17T05:14:04.148Z,98.10
2022-11-17T05:16:49.973Z,98.10
2022-11-17T05:19:20.662Z,98.10
2022-11-17T05:21:48.094Z,98.20
2022-11-17T05:24:15.485Z,98.10
2022-11-17T05:26:44.365Z,98.10
2022-11-17T05:29:14.236Z,98.20
2022-11-17T05:31:41.852Z,98.20
2022-11-17T05:34:12.397Z,98.10
2022-11-17T05:36:40.680Z,98.00
2022-11-17T05:39:09.126Z,98.10
2022-11-17T05:41:37.246Z,98.20
2022-11-17T05:44:05.061Z,98.30
2022-11-17T05:46:32.794Z,98.30
2022-11-17T05:49:00.728Z,98.30
2022-11-17T05:51:28.185Z,98.30
2022-11-17T05:53:55.544Z,98.20
2022-11-17T05:56:25.694Z,98.20
2022-11-17T05:58:57.715Z,98.10
2022-11-17T06:01:25.326Z,98.10
2022-11-17T06:03:55.846Z,98.10
2022-11-17T06:06:23.339Z,98.20
2022-11-17T06:08:51.090Z,98.20
2022-11-17T06:11:19.336Z,98.20
2022-11-17T06:13:46.748Z,98.10
2022-11-17T06:16:17.398Z,98.20
2022-11-17T06:19:09.778Z,98.10
2022-11-17T06:22:04.446Z,98.10
2022-11-17T06:24:24.601Z,98.10
2022-11-17T06:26:52.588Z,98.00
2022-11-17T06:29:20.164Z,98.10
2022-11-17T06:31:47.749Z,98.10
2022-11-17T06:34:15.154Z,98.10
2022-11-17T06:36:42.457Z,98.10
2022-11-17T06:39:09.743Z,98.10
2022-11-17T06:41:37.060Z,98.20
2022-11-17T06:44:04.543Z,98.20
2022-11-17T06:46:38.017Z,98.20
2022-11-17T06:49:09.559Z,98.20
2022-11-17T06:51:40.917Z,98.20
2022-11-17T06:54:12.784Z,98.10
2022-11-17T06:56:40.612Z,98.00
2022-11-17T06:59:07.905Z,98.00
2022-11-17T07:01:36.523Z,97.90
2022-11-17T07:04:04.024Z,97.80
2022-11-17T07:06:32.273Z,97.70
2022-11-17T07:08:59.781Z,97.60
2022-11-17T07:11:27.102Z,97.60
2022-11-17T07:13:54.380Z,97.70
2022-11-17T07:16:23.832Z,97.60
2022-11-17T07:18:53.098Z,97.50
2022-11-17T07:21:22.563Z,97.40
2022-11-17T07:23:49.875Z,97.50
2022-11-17T07:26:17.356Z,97.40
2022-11-17T07:28:44.662Z,97.30
2022-11-17T07:31:11.993Z,97.20
2022-11-17T07:33:39.335Z,97.30
2022-11-17T07:36:11.228Z,97.20
2022-11-17T07:38:40.645Z,97.20
2022-11-17T07:41:09.937Z,97.00
2022-11-17T07:43:37.679Z,97.00
2022-11-17T07:46:11.378Z,96.90
2022-11-17T07:48:39.163Z,96.60
2022-11-17T07:51:07.267Z,96.50
2022-11-17T07:53:35.424Z,96.70
2022-11-17T07:56:07.804Z,96.70
2022-11-17T07:58:36.482Z,96.50
2022-11-17T08:01:14.762Z,96.30
2022-11-17T08:03:43.395Z,96.20
2022-11-17T08:06:11.082Z,96.20
2022-11-17T08:08:39.254Z,96.20
2022-11-17T08:11:12.548Z,96.20
2022-11-17T08:13:41.097Z,96.00
2022-11-17T08:16:10.508Z,95.90
2022-11-17T08:18:38.175Z,95.80
2022-11-17T08:21:12.108Z,95.70
2022-11-17T08:23:40.732Z,95.50
2022-11-17T08:26:10.683Z,95.50
2022-11-17T08:28:38.855Z,95.60
2022-11-17T08:31:08.853Z,95.80
2022-11-17T08:33:36.135Z,95.70
2022-11-17T08:36:04.602Z,95.50
2022-11-17T08:38:32.011Z,95.20
2022-11-17T08:41:03.088Z,94.80
2022-11-17T08:43:30.821Z,94.50
2022-11-17T08:45:58.288Z,94.20
2022-11-17T08:48:25.806Z,93.90
2022-11-17T08:50:53.117Z,94.10
2022-11-17T08:53:23.004Z,94.20
2022-11-17T08:55:52.036Z,94.00
2022-11-17T08:58:19.436Z,93.90
2022-11-17T09:00:47.701Z,93.80
2022-11-17T09:03:15.485Z,93.70
2022-11-17T09:05:47.179Z,93.60
2022-11-17T09:11:06.967Z,93.20
2022-11-17T09:13:35.218Z,93.00
2022-11-17T09:16:10.355Z,92.90
2022-11-17T09:18:39.727Z,92.60
2022-11-17T09:21:10.112Z,92.30
2022-11-17T09:23:37.816Z,91.90
2022-11-17T09:26:12.045Z,92.00
2022-11-17T09:28:40.008Z,91.70
2022-11-17T09:31:13.898Z,91.50
2022-11-17T09:33:42.133Z,91.20
2022-11-17T09:36:10.854Z,90.90
2022-11-17T09:38:39.396Z,90.70
2022-11-17T09:41:31.496Z,90.40
2022-11-17T09:44:26.165Z,90.10
2022-11-17T09:46:59.461Z,89.70
2022-11-17T09:49:55.089Z,89.60
2022-11-17T09:52:43.685Z,89.60
2022-11-17T09:55:34.331Z,89.80
2022-11-17T09:58:39.882Z,90.00
2022-11-17T10:01:12.146Z,90.30
2022-11-17T10:03:45.679Z,90.60
2022-11-17T10:06:21.570Z,90.70
2022-11-17T10:09:25.156Z,90.70
2022-11-17T10:11:54.622Z,90.50
2022-11-17T10:14:22.994Z,90.50
2022-11-17T10:16:57.060Z,90.60
2022-11-17T10:19:32.484Z,90.80
2022-11-17T10:22:02.833Z,90.70
2022-11-17T10:24:59.804Z,90.50
2022-11-17T10:27:30.409Z,90.10
2022-11-17T10:30:02.169Z,90.20
2022-11-17T10:32:32.303Z,90.10
2022-11-17T10:35:18.423Z,90.00
2022-11-17T10:38:05.505Z,89.50
2022-11-17T10:40:47.892Z,90.00
2022-11-17T10:43:16.861Z,90.00
2022-11-17T10:45:46.068Z,90.10
2022-11-17T10:48:27.629Z,90.10
2022-11-17T10:51:02.343Z,89.80
2022-11-17T10:53:38.215Z,90.10
2022-11-17T10:56:20.030Z,90.40
2022-11-17T10:59:09.153Z,90.80
2022-11-17T11:01:39.615Z,91.00
2022-11-17T11:04:27.723Z,91.30
2022-11-17T11:07:24.035Z,91.60
2022-11-17T11:10:02.843Z,91.90
2022-11-17T11:12:45.224Z,91.90
2022-11-17T11:15:22.462Z,91.90
2022-11-17T11:17:50.216Z,92.00
2022-11-17T11:20:21.318Z,92.00
2022-11-17T11:23:40.077Z,92.20
2022-11-17T11:26:22.778Z,92.10
2022-11-17T11:29:25.627Z,92.10
2022-11-17T11:32:09.965Z,91.90
2022-11-17T11:35:21.942Z,92.30
2022-11-17T11:38:17.541Z,92.50
2022-11-17T11:41:04.796Z,92.60
2022-11-17T11:43:48.265Z,92.50
2022-11-17T11:46:48.857Z,92.40
2022-11-17T11:49:41.784Z,92.30
2022-11-17T11:52:32.068Z,92.60
2022-11-17T11:55:00.460Z,92.50
2022-11-17T11:57:39.624Z,92.60
2022-11-17T12:00:17.563Z,92.70
2022-11-17T12:02:58.461Z,92.70
2022-11-17T12:05:46.620Z,92.20
2022-11-17T12:08:26.298Z,92.30
2022-11-17T12:11:29.781Z,92.20
2022-11-17T12:13:57.846Z,91.70
2022-11-17T12:16:34.994Z,91.90
2022-11-17T12:19:03.100Z,91.90
2022-11-17T12:21:30.981Z,91.60
2022-11-17T12:24:24.536Z,92.10
2022-11-17T12:26:52.013Z,91.80
2022-11-17T12:29:22.359Z,91.60
2022-11-17T12:31:52.186Z,91.80
2022-11-17T12:34:30.656Z,92.00
2022-11-17T12:37:22.888Z,92.40
2022-11-17T12:40:08.739Z,92.60
2022-11-17T12:42:37.103Z,92.70
2022-11-17T12:45:12.919Z,92.70
2022-11-17T12:47:59.420Z,92.80
2022-11-17T12:50:52.802Z,92.80
2022-11-17T12:53:40.070Z,92.90
2022-11-17T12:56:24.365Z,93.00
2022-11-17T12:58:51.616Z,93.20
2022-11-17T13:01:31.041Z,93.50
2022-11-17T13:04:10.423Z,93.10
2022-11-17T13:06:38.150Z,92.90
2022-11-17T13:09:08.129Z,93.10
2022-11-17T13:11:35.594Z,92.80
2022-11-17T13:14:09.015Z,92.40
2022-11-17T13:16:37.942Z,92.60
2022-11-17T13:19:32.240Z,92.30
2022-11-17T13:22:03.604Z,92.20
2022-11-17T13:24:34.092Z,92.40
2022-11-17T13:27:03.901Z,92.00
2022-11-17T13:29:31.437Z,92.30
2022-11-17T13:32:16.788Z,92.00
2022-11-17T13:34:48.608Z,92.00
2022-11-17T13:37:19.025Z,92.10
2022-11-17T13:40:03.068Z,92.10
2022-11-17T13:42:33.101Z,92.00
2022-11-17T13:45:02.827Z,92.10
2022-11-17T13:47:36.339Z,92.10
2022-11-17T13:50:24.431Z,92.20
2022-11-17T13:53:04.201Z,92.20
2022-11-17T13:55:32.342Z,92.30
2022-11-17T13:58:04.397Z,91.90
2022-11-17T14:00:32.959Z,91.60
2022-11-17T14:03:03.267Z,91.60
2022-11-17T14:05:34.183Z,91.60
2022-11-17T14:08:22.158Z,91.10
2022-11-17T14:10:49.605Z,91.30
2022-11-17T14:13:23.059Z,91.30
2022-11-17T14:15:53.993Z,91.50
2022-11-17T14:18:24.899Z,91.30
2022-11-17T14:21:04.416Z,91.10
2022-11-17T14:23:31.788Z,91.40
2022-11-17T14:25:59.304Z,91.30
2022-11-17T14:28:27.355Z,91.20
2022-11-17T14:30:56.293Z,91.20
2022-11-17T14:33:24.749Z,91.20
2022-11-17T14:35:55.537Z,91.30
2022-11-17T14:38:23.266Z,91.40
2022-11-17T14:40:52.388Z,91.20
2022-11-17T14:43:21.129Z,91.30
2022-11-17T14:45:49.705Z,91.00
2022-11-17T14:48:19.355Z,91.00
2022-11-17T14:50:48.103Z,91.20
2022-11-17T14:53:15.643Z,91.10
2022-11-17T14:55:42.893Z,91.30
2022-11-17T14:58:10.373Z,91.40
2022-11-17T15:00:38.047Z,91.40
2022-11-17T15:03:05.392Z,91.60
2022-11-17T15:05:32.769Z,91.60
2022-11-17T15:08:00.235Z,91.70
2022-11-17T15:10:28.359Z,91.80
2022-11-17T15:12:56.244Z,91.90
2022-11-17T15:15:23.642Z,91.90
2022-11-17T15:17:50.896Z,92.00
2022-11-17T15:20:18.196Z,92.00
2022-11-17T15:22:45.567Z,92.10
2022-11-17T15:25:12.914Z,92.10
2022-11-17T15:27:40.286Z,92.30
2022-11-17T15:30:08.429Z,92.50
2022-11-17T15:32:37.332Z,92.60
2022-11-17T15:35:04.881Z,92.60
2022-11-17T15:37:32.268Z,92.60
2022-11-17T15:39:59.726Z,92.70
2022-11-17T15:42:27.004Z,92.80
2022-11-17T15:44:54.447Z,93.00
2022-11-17T15:47:21.899Z,93.10
2022-11-17T15:49:49.295Z,93.00
2022-11-17T15:52:19.547Z,93.00
2022-11-17T15:54:57.639Z,93.20
2022-11-17T15:57:25.103Z,93.30
2022-11-17T15:59:52.539Z,93.30
2022-11-17T16:02:20.313Z,93.30
2022-11-17T16:04:47.811Z,93.30
2022-11-17T16:07:15.123Z,93.40
2022-11-17T16:09:44.944Z,93.50
2022-11-17T16:12:16.914Z,93.50
2022-11-17T16:14:44.400Z,93.50
2022-11-17T16:17:11.669Z,93.40
2022-11-17T16:19:38.952Z,93.70
2022-11-17T16:22:06.336Z,93.50
2022-11-17T16:24:33.612Z,93.20
2022-11-17T16:27:00.900Z,93.20
2022-11-17T16:29:28.280Z,93.40
2022-11-17T16:31:55.636Z,93.40
2022-11-17T16:34:22.988Z,93.40
2022-11-17T16:36:50.395Z,93.40
2022-11-17T16:39:17.935Z,93.50
2022-11-17T16:41:45.835Z,93.60
2022-11-17T16:44:15.902Z,93.50
2022-11-17T16:46:45.774Z,93.60
2022-11-17T16:49:16.012Z,93.70
2022-11-17T16:51:52.285Z,93.70
2022-11-17T16:54:20.496Z,93.60
2022-11-17T16:56:47.809Z,93.80
2022-11-17T16:59:15.573Z,93.90
2022-11-17T17:01:43.278Z,93.80
2022-11-17T17:04:12.497Z,93.80
2022-11-17T17:06:42.014Z,93.90
2022-11-17T17:09:11.439Z,93.80
2022-11-17T17:11:39.425Z,93.70
2022-11-17T17:14:09.749Z,93.50
2022-11-17T17:16:37.537Z,93.60
2022-11-17T17:19:07.527Z,93.50
2022-11-17T17:21:36.399Z,93.50
2022-11-17T17:24:04.317Z,93.60
2022-11-17T17:26:32.849Z,93.70
2022-11-17T17:29:01.537Z,93.70
2022-11-17T17:31:35.891Z,93.70
2022-11-17T17:34:04.351Z,93.70
2022-11-17T17:36:32.097Z,93.70
2022-11-17T17:39:03.482Z,93.70
2022-11-17T17:41:38.771Z,93.70
2022-11-17T17:44:08.115Z,93.80
2022-11-17T17:46:37.871Z,93.80
2022-11-17T17:49:06.250Z,93.90
2022-11-17T17:51:37.569Z,93.90
2022-11-17T17:54:04.968Z,94.00
2022-11-17T17:56:34.674Z,94.10
2022-11-17T17:59:01.909Z,94.00
2022-11-17T18:01:33.053Z,93.80
2022-11-17T18:04:05.153Z,93.90
2022-11-17T18:06:39.798Z,94.10
2022-11-17T18:09:08.826Z,94.00
2022-11-17T18:11:36.763Z,93.80
2022-11-17T18:14:04.794Z,93.80
2022-11-17T18:16:33.472Z,93.90
2022-11-17T18:19:03.703Z,93.80
2022-11-17T18:21:31.869Z,93.80
2022-11-17T18:24:01.385Z,93.90
2022-11-17T18:26:33.747Z,93.80
2022-11-17T18:29:02.474Z,93.90
2022-11-17T18:31:31.841Z,93.90
2022-11-17T18:34:05.710Z,94.30
2022-11-17T18:36:33.330Z,94.00
2022-11-17T18:39:00.837Z,94.10
2022-11-17T18:41:30.980Z,94.30
2022-11-17T18:43:58.606Z,94.30
2022-11-17T18:46:30.244Z,94.30
2022-11-17T18:48:58.375Z,94.20
2022-11-17T18:51:28.430Z,94.00
2022-11-17T18:53:57.517Z,94.00
2022-11-17T18:56:27.922Z,94.00
2022-11-17T18:58:55.288Z,94.20
2022-11-17T19:01:24.876Z,94.20
2022-11-17T19:03:54.079Z,94.20
2022-11-17T19:06:23.314Z,94.10
2022-11-17T19:08:51.954Z,94.00
2022-11-17T19:11:21.384Z,93.90
2022-11-17T19:13:49.097Z,93.90
2022-11-17T19:16:24.872Z,94.00
2022-11-17T19:18:54.696Z,94.60
2022-11-17T19:21:33.596Z,94.70
2022-11-17T19:24:03.308Z,94.90
2022-11-17T19:26:35.946Z,94.90
2022-11-17T19:29:15.637Z,95.00
2022-11-17T19:31:44.718Z,95.00
2022-11-17T19:34:14.516Z,94.90
2022-11-17T19:36:42.317Z,94.80
2022-11-17T19:39:12.056Z,94.80
2022-11-17T19:41:42.094Z,95.00
2022-11-17T19:44:09.803Z,95.20
2022-11-17T19:46:37.713Z,95.20
2022-11-17T19:49:06.253Z,95.50
2022-11-17T19:51:38.927Z,95.40
2022-11-17T19:54:08.845Z,95.30
2022-11-17T19:56:36.940Z,95.20
2022-11-17T19:59:05.059Z,95.10
2022-11-17T20:01:33.341Z,94.90
2022-11-17T20:04:01.869Z,95.10
2022-11-17T20:06:34.770Z,95.10
2022-11-17T20:09:10.100Z,95.00
2022-11-17T20:11:37.625Z,94.80
2022-11-17T20:14:05.312Z,94.80
2022-11-17T20:16:33.219Z,94.90
2022-11-17T20:19:01.942Z,94.60
2022-11-17T20:21:30.891Z,94.50
2022-11-17T20:23:59.163Z,94.50
2022-11-17T20:26:29.817Z,94.30
2022-11-17T20:28:58.381Z,94.20
2022-11-17T20:31:31.389Z,94.20
2022-11-17T20:34:02.728Z,94.20
2022-11-17T20:36:31.869Z,94.00
2022-11-17T20:39:01.396Z,94.00
2022-11-17T20:41:29.263Z,94.30
2022-11-17T20:43:58.595Z,94.40
2022-11-17T20:46:26.377Z,94.40
2022-11-17T20:48:53.973Z,94.20
2022-11-17T20:51:23.863Z,94.00
2022-11-17T20:53:51.400Z,93.90
2022-11-17T20:56:19.355Z,93.70
2022-11-17T20:58:46.846Z,93.80
2022-11-17T21:01:22.485Z,93.70
2022-11-17T21:03:50.043Z,94.00
2022-11-17T21:06:17.984Z,94.00
2022-11-17T21:08:45.965Z,94.10
2022-11-17T21:11:39.099Z,94.20
2022-11-17T21:14:08.566Z,94.00
2022-11-17T21:16:38.559Z,94.00
2022-11-17T21:19:06.087Z,94.00
2022-11-17T21:21:33.816Z,93.80
2022-11-17T21:24:01.218Z,93.90
2022-11-17T21:26:28.796Z,94.00
2022-11-17T21:28:59.363Z,94.00
2022-11-17T21:31:31.209Z,94.00
2022-11-17T21:34:01.493Z,93.90
2022-11-17T21:36:31.287Z,93.80
2022-11-17T21:38:59.383Z,93.90
2022-11-17T21:41:31.483Z,93.90
2022-11-17T21:44:00.444Z,93.80
2022-11-17T21:46:30.374Z,93.90
2022-11-17T21:48:59.280Z,94.00
2022-11-17T21:51:29.155Z,94.40
2022-11-17T21:53:58.352Z,94.20
2022-11-17T21:56:27.348Z,94.40
2022-11-17T21:59:17.430Z,94.30
2022-11-17T22:01:45.285Z,94.30
2022-11-17T22:04:13.207Z,93.90
2022-11-17T22:06:40.581Z,94.00
2022-11-17T22:09:07.935Z,94.00
2022-11-17T22:11:35.775Z,94.00
2022-11-17T22:14:09.478Z,94.10
2022-11-17T22:16:39.215Z,94.10
2022-11-17T22:19:08.127Z,93.90
2022-11-17T22:21:36.936Z,93.90
2022-11-17T22:24:06.006Z,94.00
2022-11-17T22:26:35.884Z,94.00
2022-11-17T22:29:03.272Z,94.10
2022-11-17T22:31:30.620Z,94.00
2022-11-17T22:33:58.206Z,94.00
2022-11-17T22:36:25.689Z,93.90
2022-11-17T22:38:53.336Z,93.80
2022-11-17T22:41:21.716Z,93.70
2022-11-17T22:43:53.390Z,93.40
2022-11-17T22:46:22.740Z,93.50
2022-11-17T22:48:50.267Z,93.60
2022-11-17T22:51:37.935Z,93.70
2022-11-17T22:54:06.443Z,93.90
2022-11-17T22:56:34.491Z,93.80
2022-11-17T22:59:01.780Z,93.80
2022-11-17T23:01:29.194Z,93.80
2022-11-17T23:03:57.102Z,93.70
2022-11-17T23:06:24.587Z,93.80
2022-11-17T23:08:51.935Z,93.70
2022-11-17T23:11:36.408Z,93.80
2022-11-17T23:14:10.839Z,93.80
2022-11-17T23:16:38.859Z,93.70
2022-11-17T23:19:06.995Z,93.70
2022-11-17T23:21:34.266Z,93.70
2022-11-17T23:24:01.549Z,93.60
2022-11-17T23:26:29.043Z,93.60
2022-11-17T23:28:56.638Z,93.70
2022-11-17T23:31:24.041Z,93.60
2022-11-17T23:33:52.779Z,93.60
2022-11-17T23:36:22.332Z,93.70
2022-11-17T23:38:50.874Z,93.90
2022-11-17T23:41:19.959Z,94.10
2022-11-17T23:43:51.117Z,94.10
2022-11-17T23:46:20.354Z,94.10
2022-11-17T23:48:48.028Z,94.20
2022-11-17T23:51:18.008Z,94.40
2022-11-17T23:53:46.997Z,94.30
2022-11-17T23:56:15.356Z,94.20
2022-11-17T23:58:44.273Z,94.10
